PWSweather.com
Personal Weather Stations
Station Observations
VPOKROGLO
Kal Nad Kanalom, PrimorskaSI

Kal Nad KanalomPrimorskaSI

Lat: 46.072, Lon: 13.734

Elevation: 2526

Station Type: WS-2355

http://www.okroglovreme.com

High Low Average
Temperature 52.2°F11.2°F 37.6°F3.1°F 42.4°F5.8°F
Dew Point 35.4°F1.9°F 26.6°F-3.0°F 29.3°F-1.5°F
Winds 5.6 mph SSW9.0 mph SSW Calm Calm 2.7 mph 4.3 mph
Wind Gusts 21.3 mph34.3 mph -- 7.8 mph12.6 mph
Humidity 72% 49% 60%
Pressure 29.97 in1014.90 in 29.86 in1011.20 in -
Precipitation 0.00 in0.00 in - -
Hour Temp Dew Point Humidity Winds Wind Gusts Pressure Precip Precip Rate Daily Precip Total
12:00 AM 38.3°F3.5°C 30.1°F-1.1°C 72% 4.9 mph S7.9 kmh S 13.6 mph21.9 kmh 29.91 in1012.9 mb 0.00 in0.0 mm 0.00 in/hr0.0 mm/hr 0.00 in0.0 mm
12:15 AM 38.1°F3.4°C 29.9°F-1.2°C 72% 4.8 mph WSW7.7 kmh WSW 12.8 mph20.6 kmh 29.91 in1012.9 mb 0.00 in0.0 mm 0.00 in/hr0.0 mm/hr 0.00 in0.0 mm
12:30 AM 38.1°F3.4°C 29.5°F-1.4°C 71% 4.4 mph W7.1 kmh W 11.9 mph19.2 kmh 29.91 in1012.9 mb 0.00 in0.0 mm 0.00 in/hr0.0 mm/hr 0.00 in0.0 mm
12:45 AM 38.1°F3.4°C 29.2°F-1.6°C 70% 4.8 mph SW7.7 kmh SW 9.6 mph15.4 kmh 29.90 in1012.5 mb 0.00 in0.0 mm 0.00 in/hr0.0 mm/hr 0.00 in0.0 mm
01:00 AM 38.3°F3.5°C 29.0°F-1.7°C 69% 4.6 mph WSW7.4 kmh WSW 11.0 mph17.7 kmh 29.90 in1012.5 mb 0.00 in0.0 mm 0.00 in/hr0.0 mm/hr 0.00 in0.0 mm
01:15 AM 38.3°F3.5°C 28.7°F-1.8°C 68% 4.9 mph SW7.9 kmh SW 15.2 mph24.5 kmh 29.89 in1012.2 mb 0.00 in0.0 mm 0.00 in/hr0.0 mm/hr 0.00 in0.0 mm
01:30 AM 38.1°F3.4°C 28.5°F-1.9°C 68% 4.0 mph WSW6.4 kmh WSW 8.3 mph13.4 kmh 29.89 in1012.2 mb 0.00 in0.0 mm 0.00 in/hr0.0 mm/hr 0.00 in0.0 mm
01:45 AM 37.9°F3.3°C 28.3°F-2.1°C 68% 4.2 mph WSW6.8 kmh WSW 10.3 mph16.6 kmh 29.89 in1012.2 mb 0.00 in0.0 mm 0.00 in/hr0.0 mm/hr 0.00 in0.0 mm
02:00 AM 38.1°F3.4°C 28.1°F-2.2°C 67% 4.3 mph WSW6.9 kmh WSW 11.4 mph18.3 kmh 29.89 in1012.2 mb 0.00 in0.0 mm 0.00 in/hr0.0 mm/hr 0.00 in0.0 mm
02:15 AM 38.1°F3.4°C 27.8°F-2.3°C 66% 4.7 mph WNW7.6 kmh WNW 13.2 mph21.2 kmh 29.89 in1012.2 mb 0.00 in0.0 mm 0.00 in/hr0.0 mm/hr 0.00 in0.0 mm
02:30 AM 38.1°F3.4°C 27.8°F-2.3°C 66% 5.0 mph WSW8.0 kmh WSW 16.3 mph26.2 kmh 29.88 in1011.9 mb 0.00 in0.0 mm 0.00 in/hr0.0 mm/hr 0.00 in0.0 mm
02:45 AM 38.1°F3.4°C 27.4°F-2.6°C 65% 4.6 mph W7.4 kmh W 9.8 mph15.8 kmh 29.88 in1011.9 mb 0.00 in0.0 mm 0.00 in/hr0.0 mm/hr 0.00 in0.0 mm
03:00 AM 37.9°F3.3°C 27.2°F-2.7°C 65% 4.5 mph W7.2 kmh W 11.0 mph17.7 kmh 29.88 in1011.9 mb 0.00 in0.0 mm 0.00 in/hr0.0 mm/hr 0.00 in0.0 mm
03:15 AM 37.9°F3.3°C 27.2°F-2.7°C 65% 4.5 mph WSW7.2 kmh WSW 12.1 mph19.5 kmh 29.88 in1011.9 mb 0.00 in0.0 mm 0.00 in/hr0.0 mm/hr 0.00 in0.0 mm
03:30 AM 37.9°F3.3°C 27.2°F-2.7°C 65% 5.4 mph SW8.7 kmh SW 15.7 mph25.3 kmh 29.87 in1011.5 mb 0.00 in0.0 mm 0.00 in/hr0.0 mm/hr 0.00 in0.0 mm
03:45 AM 37.9°F3.3°C 27.2°F-2.7°C 65% 4.7 mph WSW7.6 kmh WSW 13.6 mph21.9 kmh 29.87 in1011.5 mb 0.00 in0.0 mm 0.00 in/hr0.0 mm/hr 0.00 in0.0 mm
04:00 AM 37.9°F3.3°C 26.8°F-2.9°C 64% 4.9 mph WSW7.9 kmh WSW 11.4 mph18.3 kmh 29.87 in1011.5 mb 0.00 in0.0 mm 0.00 in/hr0.0 mm/hr 0.00 in0.0 mm
04:15 AM 37.9°F3.3°C 26.8°F-2.9°C 64% 4.9 mph WSW7.9 kmh WSW 21.3 mph34.3 kmh 29.87 in1011.5 mb 0.00 in0.0 mm 0.00 in/hr0.0 mm/hr 0.00 in0.0 mm
04:30 AM 37.8°F3.2°C 27.0°F-2.8°C 65% 4.2 mph SW6.8 kmh SW 12.5 mph20.1 kmh 29.87 in1011.5 mb 0.00 in0.0 mm 0.00 in/hr0.0 mm/hr 0.00 in0.0 mm
04:45 AM 37.6°F3.1°C 27.2°F-2.7°C 66% 4.4 mph WSW7.1 kmh WSW 13.2 mph21.2 kmh 29.87 in1011.5 mb 0.00 in0.0 mm 0.00 in/hr0.0 mm/hr 0.00 in0.0 mm
05:00 AM 37.9°F3.3°C 27.2°F-2.7°C 65% 4.6 mph WSW7.4 kmh WSW 11.0 mph17.7 kmh 29.86 in1011.2 mb 0.00 in0.0 mm 0.00 in/hr0.0 mm/hr 0.00 in0.0 mm
05:15 AM 37.9°F3.3°C 27.6°F-2.4°C 66% 5.6 mph SSW9.0 kmh SSW 15.7 mph25.3 kmh 29.87 in1011.5 mb 0.00 in0.0 mm 0.00 in/hr0.0 mm/hr 0.00 in0.0 mm
05:30 AM 37.9°F3.3°C 27.2°F-2.7°C 65% 4.0 mph WSW6.4 kmh WSW 9.8 mph15.8 kmh 29.86 in1011.2 mb 0.00 in0.0 mm 0.00 in/hr0.0 mm/hr 0.00 in0.0 mm
05:45 AM 37.9°F3.3°C 27.2°F-2.7°C 65% 4.4 mph W7.1 kmh W 11.2 mph18.0 kmh 29.87 in1011.5 mb 0.00 in0.0 mm 0.00 in/hr0.0 mm/hr 0.00 in0.0 mm
06:00 AM 37.9°F3.3°C 27.6°F-2.4°C 66% 4.6 mph W7.4 kmh W 10.5 mph16.9 kmh 29.87 in1011.5 mb 0.00 in0.0 mm 0.00 in/hr0.0 mm/hr 0.00 in0.0 mm
06:15 AM 37.9°F3.3°C 26.8°F-2.9°C 64% 4.2 mph W6.8 kmh W 9.6 mph15.4 kmh 29.87 in1011.5 mb 0.00 in0.0 mm 0.00 in/hr0.0 mm/hr 0.00 in0.0 mm
06:30 AM 38.1°F3.4°C 26.6°F-3.0°C 63% 4.9 mph W7.9 kmh W 9.4 mph15.1 kmh 29.87 in1011.5 mb 0.00 in0.0 mm 0.00 in/hr0.0 mm/hr 0.00 in0.0 mm
06:45 AM 38.3°F3.5°C 26.8°F-2.9°C 63% 4.4 mph W7.1 kmh W 9.4 mph15.1 kmh 29.88 in1011.9 mb 0.00 in0.0 mm 0.00 in/hr0.0 mm/hr 0.00 in0.0 mm
07:00 AM 38.3°F3.5°C 26.8°F-2.9°C 63% 5.2 mph W8.4 kmh W 13.4 mph21.6 kmh 29.88 in1011.9 mb 0.00 in0.0 mm 0.00 in/hr0.0 mm/hr 0.00 in0.0 mm
07:15 AM 38.1°F3.4°C 26.6°F-3.0°C 63% 4.9 mph W7.9 kmh W 13.6 mph21.9 kmh 29.88 in1011.9 mb 0.00 in0.0 mm 0.00 in/hr0.0 mm/hr 0.00 in0.0 mm
07:30 AM 38.3°F3.5°C 26.8°F-2.9°C 63% 3.5 mph WSW5.6 kmh WSW 8.1 mph13.0 kmh 29.89 in1012.2 mb 0.00 in0.0 mm 0.00 in/hr0.0 mm/hr 0.00 in0.0 mm
07:45 AM 38.3°F3.5°C 27.2°F-2.7°C 64% 3.8 mph WSW6.1 kmh WSW 10.7 mph17.2 kmh 29.89 in1012.2 mb 0.00 in0.0 mm 0.00 in/hr0.0 mm/hr 0.00 in0.0 mm
08:00 AM 38.3°F3.5°C 27.6°F-2.4°C 65% 4.3 mph WSW6.9 kmh WSW 10.5 mph16.9 kmh 29.89 in1012.2 mb 0.00 in0.0 mm 0.00 in/hr0.0 mm/hr 0.00 in0.0 mm
08:15 AM 38.5°F3.6°C 27.4°F-2.6°C 64% 3.5 mph WSW5.6 kmh WSW 8.3 mph13.4 kmh 29.89 in1012.2 mb 0.00 in0.0 mm 0.00 in/hr0.0 mm/hr 0.00 in0.0 mm
08:30 AM 38.8°F3.8°C 28.1°F-2.2°C 65% 4.2 mph S6.8 kmh S 9.8 mph15.8 kmh 29.89 in1012.2 mb 0.00 in0.0 mm 0.00 in/hr0.0 mm/hr 0.00 in0.0 mm
08:45 AM 39.2°F4.0°C 28.4°F-2.0°C 65% 4.5 mph SW7.2 kmh SW 11.6 mph18.7 kmh 29.89 in1012.2 mb 0.00 in0.0 mm 0.00 in/hr0.0 mm/hr 0.00 in0.0 mm
09:00 AM 39.9°F4.4°C 29.1°F-1.6°C 65% 3.8 mph SSW6.1 kmh SSW 13.2 mph21.2 kmh 29.89 in1012.2 mb 0.00 in0.0 mm 0.00 in/hr0.0 mm/hr 0.00 in0.0 mm
09:15 AM 40.6°F4.8°C 29.8°F-1.2°C 65% 3.7 mph WSW6.0 kmh WSW 10.5 mph16.9 kmh 29.90 in1012.5 mb 0.00 in0.0 mm 0.00 in/hr0.0 mm/hr 0.00 in0.0 mm
09:30 AM 41.4°F5.2°C 29.7°F-1.3°C 63% 3.3 mph WSW5.3 kmh WSW 9.2 mph14.8 kmh 29.90 in1012.5 mb 0.00 in0.0 mm 0.00 in/hr0.0 mm/hr 0.00 in0.0 mm
09:45 AM 41.9°F5.5°C 30.2°F-1.0°C 63% 4.3 mph W6.9 kmh W 11.2 mph18.0 kmh 29.91 in1012.9 mb 0.00 in0.0 mm 0.00 in/hr0.0 mm/hr 0.00 in0.0 mm
10:00 AM 42.6°F5.9°C 30.5°F-0.8°C 62% 3.4 mph WSW5.5 kmh WSW 8.7 mph14.0 kmh 29.92 in1013.2 mb 0.00 in0.0 mm 0.00 in/hr0.0 mm/hr 0.00 in0.0 mm
10:15 AM 43.3°F6.3°C 30.8°F-0.7°C 61% 3.7 mph SSW6.0 kmh SSW 8.9 mph14.3 kmh 29.92 in1013.2 mb 0.00 in0.0 mm 0.00 in/hr0.0 mm/hr 0.00 in0.0 mm
10:30 AM 44.2°F6.8°C 31.2°F-0.4°C 60% 3.4 mph SSW5.5 kmh SSW 9.8 mph15.8 kmh 29.92 in1013.2 mb 0.00 in0.0 mm 0.00 in/hr0.0 mm/hr 0.00 in0.0 mm
10:45 AM 44.6°F7.0°C 32.0°F0.0°C 61% 2.5 mph SSW4.0 kmh SSW 9.2 mph14.8 kmh 29.92 in1013.2 mb 0.00 in0.0 mm 0.00 in/hr0.0 mm/hr 0.00 in0.0 mm
11:00 AM 45.1°F7.3°C 32.1°F0.1°C 60% 3.2 mph S5.1 kmh S 13.2 mph21.2 kmh 29.92 in1013.2 mb 0.00 in0.0 mm 0.00 in/hr0.0 mm/hr 0.00 in0.0 mm
11:15 AM 45.5°F7.5°C 31.6°F-0.2°C 58% 3.6 mph SW5.8 kmh SW 9.8 mph15.8 kmh 29.92 in1013.2 mb 0.00 in0.0 mm 0.00 in/hr0.0 mm/hr 0.00 in0.0 mm
11:30 AM 46.0°F7.8°C 31.6°F-0.2°C 57% 3.2 mph SW5.1 kmh SW 11.2 mph18.0 kmh 29.92 in1013.2 mb 0.00 in0.0 mm 0.00 in/hr0.0 mm/hr 0.00 in0.0 mm
11:45 AM 46.6°F8.1°C 32.1°F0.1°C 57% 3.1 mph SSW5.0 kmh SSW 13.6 mph21.9 kmh 29.91 in1012.9 mb 0.00 in0.0 mm 0.00 in/hr0.0 mm/hr 0.00 in0.0 mm
12:00 PM 47.7°F8.7°C 32.7°F0.4°C 56% 3.0 mph SSW4.8 kmh SSW 9.2 mph14.8 kmh 29.91 in1012.9 mb 0.00 in0.0 mm 0.00 in/hr0.0 mm/hr 0.00 in0.0 mm
12:15 PM 48.4°F9.1°C 32.9°F0.5°C 55% 1.7 mph SW2.7 kmh SW 7.8 mph12.6 kmh 29.91 in1012.9 mb 0.00 in0.0 mm 0.00 in/hr0.0 mm/hr 0.00 in0.0 mm
12:30 PM 48.7°F9.3°C 33.3°F0.7°C 55% 1.5 mph SW2.4 kmh SW 5.1 mph8.2 kmh 29.91 in1012.9 mb 0.00 in0.0 mm 0.00 in/hr0.0 mm/hr 0.00 in0.0 mm
12:45 PM 49.3°F9.6°C 33.3°F0.7°C 54% 1.8 mph WSW2.9 kmh WSW 6.5 mph10.5 kmh 29.91 in1012.9 mb 0.00 in0.0 mm 0.00 in/hr0.0 mm/hr 0.00 in0.0 mm
01:00 PM 49.8°F9.9°C 33.8°F1.0°C 54% 1.5 mph SW2.4 kmh SW 5.4 mph8.7 kmh 29.91 in1012.9 mb 0.00 in0.0 mm 0.00 in/hr0.0 mm/hr 0.00 in0.0 mm
01:15 PM 50.2°F10.1°C 34.2°F1.2°C 54% 1.8 mph S2.9 kmh S 6.9 mph11.1 kmh 29.91 in1012.9 mb 0.00 in0.0 mm 0.00 in/hr0.0 mm/hr 0.00 in0.0 mm
01:30 PM 50.7°F10.4°C 34.7°F1.5°C 54% 1.9 mph S3.1 kmh S 8.7 mph14.0 kmh 29.91 in1012.9 mb 0.00 in0.0 mm 0.00 in/hr0.0 mm/hr 0.00 in0.0 mm
01:45 PM 50.9°F10.5°C 34.4°F1.3°C 53% 0.9 mph NNE1.4 kmh NNE 3.8 mph6.1 kmh 29.91 in1012.9 mb 0.00 in0.0 mm 0.00 in/hr0.0 mm/hr 0.00 in0.0 mm
02:00 PM 52.0°F11.1°C 35.4°F1.9°C 53% 0.7 mph SW1.1 kmh SW 3.6 mph5.8 kmh 29.91 in1012.9 mb 0.00 in0.0 mm 0.00 in/hr0.0 mm/hr 0.00 in0.0 mm
02:15 PM 52.2°F11.2°C 34.1°F1.2°C 50% 2.1 mph SSW3.4 kmh SSW 6.3 mph10.1 kmh 29.91 in1012.9 mb 0.00 in0.0 mm 0.00 in/hr0.0 mm/hr 0.00 in0.0 mm
02:30 PM 51.6°F10.9°C 33.6°F0.9°C 50% 1.4 mph WNW2.3 kmh WNW 5.8 mph9.3 kmh 29.91 in1012.9 mb 0.00 in0.0 mm 0.00 in/hr0.0 mm/hr 0.00 in0.0 mm
02:45 PM 51.8°F11.0°C 33.7°F0.9°C 50% 1.0 mph S1.6 kmh S 5.1 mph8.2 kmh 29.91 in1012.9 mb 0.00 in0.0 mm 0.00 in/hr0.0 mm/hr 0.00 in0.0 mm
03:00 PM 52.0°F11.1°C 33.4°F0.8°C 49% 1.1 mph SSE1.8 kmh SSE 4.9 mph7.9 kmh 29.91 in1012.9 mb 0.00 in0.0 mm 0.00 in/hr0.0 mm/hr 0.00 in0.0 mm
03:15 PM 51.8°F11.0°C 33.7°F0.9°C 49% 1.1 mph SSW1.8 kmh SSW 4.7 mph7.6 kmh 29.91 in1012.9 mb 0.00 in0.0 mm 0.00 in/hr0.0 mm/hr 0.00 in0.0 mm
03:30 PM 51.4°F10.8°C 32.9°F0.5°C 49% 1.8 mph SW2.9 kmh SW 5.4 mph8.7 kmh 29.91 in1012.9 mb 0.00 in0.0 mm 0.00 in/hr0.0 mm/hr 0.00 in0.0 mm
03:45 PM 50.9°F10.5°C 32.4°F0.2°C 49% 1.0 mph SSW1.6 kmh SSW 4.0 mph6.4 kmh 29.91 in1012.9 mb 0.00 in0.0 mm 0.00 in/hr0.0 mm/hr 0.00 in0.0 mm
04:00 PM 50.0°F10.0°C 31.6°F-0.2°C 49% 2.0 mph SSW3.2 kmh SSW 6.9 mph11.1 kmh 29.91 in1012.9 mb 0.00 in0.0 mm 0.00 in/hr0.0 mm/hr 0.00 in0.0 mm
04:15 PM 48.9°F9.4°C 30.6°F-0.8°C 49% 2.3 mph SSW3.7 kmh SSW 6.5 mph10.5 kmh 29.91 in1012.9 mb 0.00 in0.0 mm 0.00 in/hr0.0 mm/hr 0.00 in0.0 mm
04:30 PM 48.0°F8.9°C 29.7°F-1.3°C 49% 1.4 mph SW2.3 kmh SW 6.5 mph10.5 kmh 29.91 in1012.9 mb 0.00 in0.0 mm 0.00 in/hr0.0 mm/hr 0.00 in0.0 mm
04:45 PM 46.9°F8.3°C 29.2°F-1.6°C 50% 1.1 mph SW1.8 kmh SW 5.4 mph8.7 kmh 29.91 in1012.9 mb 0.00 in0.0 mm 0.00 in/hr0.0 mm/hr 0.00 in0.0 mm
05:00 PM 45.3°F7.4°C 28.2°F-2.1°C 51% 1.2 mph WSW1.9 kmh WSW 4.3 mph6.9 kmh 29.92 in1013.2 mb 0.00 in0.0 mm 0.00 in/hr0.0 mm/hr 0.00 in0.0 mm
05:15 PM 44.1°F6.7°C 27.5°F-2.5°C 52% 0.9 mph NW1.4 kmh NW 3.6 mph5.8 kmh 29.92 in1013.2 mb 0.00 in0.0 mm 0.00 in/hr0.0 mm/hr 0.00 in0.0 mm
05:30 PM 43.5°F6.4°C 27.5°F-2.5°C 53% 1.3 mph NW2.1 kmh NW 3.4 mph5.5 kmh 29.92 in1013.2 mb 0.00 in0.0 mm 0.00 in/hr0.0 mm/hr 0.00 in0.0 mm
05:45 PM 43.0°F6.1°C 27.0°F-2.8°C 53% 1.3 mph NW2.1 kmh NW 5.4 mph8.7 kmh 29.93 in1013.5 mb 0.00 in0.0 mm 0.00 in/hr0.0 mm/hr 0.00 in0.0 mm
06:00 PM 42.6°F5.9°C 27.1°F-2.7°C 54% 1.6 mph NNW2.6 kmh NNW 4.3 mph6.9 kmh 29.93 in1013.5 mb 0.00 in0.0 mm 0.00 in/hr0.0 mm/hr 0.00 in0.0 mm
06:15 PM 42.6°F5.9°C 27.1°F-2.7°C 54% 1.4 mph NW2.3 kmh NW 3.8 mph6.1 kmh 29.93 in1013.5 mb 0.00 in0.0 mm 0.00 in/hr0.0 mm/hr 0.00 in0.0 mm
06:30 PM 42.4°F5.8°C 27.0°F-2.8°C 54% 1.5 mph NNW2.4 kmh NNW 5.4 mph8.7 kmh 29.93 in1013.5 mb 0.00 in0.0 mm 0.00 in/hr0.0 mm/hr 0.00 in0.0 mm
06:45 PM 42.1°F5.6°C 27.1°F-2.7°C 55% 1.3 mph NW2.1 kmh NW 3.6 mph5.8 kmh 29.93 in1013.5 mb 0.00 in0.0 mm 0.00 in/hr0.0 mm/hr 0.00 in0.0 mm
07:00 PM 41.9°F5.5°C 26.9°F-2.8°C 55% 1.0 mph NW1.6 kmh NW 3.8 mph6.1 kmh 29.94 in1013.9 mb 0.00 in0.0 mm 0.00 in/hr0.0 mm/hr 0.00 in0.0 mm
07:15 PM 41.9°F5.5°C 27.3°F-2.6°C 56% 1.2 mph NNW1.9 kmh NNW 4.7 mph7.6 kmh 29.94 in1013.9 mb 0.00 in0.0 mm 0.00 in/hr0.0 mm/hr 0.00 in0.0 mm
07:30 PM 41.9°F5.5°C 27.8°F-2.3°C 57% 0.8 mph N1.3 kmh N 3.8 mph6.1 kmh 29.94 in1013.9 mb 0.00 in0.0 mm 0.00 in/hr0.0 mm/hr 0.00 in0.0 mm
07:45 PM 41.9°F5.5°C 27.8°F-2.3°C 57% 0.6 mph NNW1.0 kmh NNW 3.8 mph6.1 kmh 29.94 in1013.9 mb 0.00 in0.0 mm 0.00 in/hr0.0 mm/hr 0.00 in0.0 mm
08:00 PM 42.1°F5.6°C 27.9°F-2.3°C 57% 1.0 mph N1.6 kmh N 3.1 mph5.0 kmh 29.95 in1014.2 mb 0.00 in0.0 mm 0.00 in/hr0.0 mm/hr 0.00 in0.0 mm
08:15 PM 41.7°F5.4°C 28.0°F-2.2°C 58% 0.9 mph N1.4 kmh N 2.9 mph4.7 kmh 29.95 in1014.2 mb 0.00 in0.0 mm 0.00 in/hr0.0 mm/hr 0.00 in0.0 mm
08:30 PM 41.5°F5.3°C 27.8°F-2.3°C 58% 0.4 mph NW0.6 kmh NW 4.0 mph6.4 kmh 29.95 in1014.2 mb 0.00 in0.0 mm 0.00 in/hr0.0 mm/hr 0.00 in0.0 mm
08:45 PM 41.5°F5.3°C 28.3°F-2.1°C 59% 0.5 mph NNW0.8 kmh NNW 3.8 mph6.1 kmh 29.96 in1014.6 mb 0.00 in0.0 mm 0.00 in/hr0.0 mm/hr 0.00 in0.0 mm
09:00 PM 41.5°F5.3°C 28.3°F-2.1°C 59% 0.4 mph NNW0.6 kmh NNW 2.5 mph4.0 kmh 29.96 in1014.6 mb 0.00 in0.0 mm 0.00 in/hr0.0 mm/hr 0.00 in0.0 mm
09:15 PM 41.5°F5.3°C 28.7°F-1.8°C 60% 1.0 mph NW1.6 kmh NW 3.6 mph5.8 kmh 29.96 in1014.6 mb 0.00 in0.0 mm 0.00 in/hr0.0 mm/hr 0.00 in0.0 mm
09:30 PM 41.7°F5.4°C 28.8°F-1.8°C 60% 0.2 mph WNW0.3 kmh WNW 3.4 mph5.5 kmh 29.96 in1014.6 mb 0.00 in0.0 mm 0.00 in/hr0.0 mm/hr 0.00 in0.0 mm
09:45 PM 41.2°F5.1°C 28.7°F-1.8°C 61% Calm Calm 1.3 mph2.1 kmh 29.96 in1014.6 mb 0.00 in0.0 mm 0.00 in/hr0.0 mm/hr 0.00 in0.0 mm
10:00 PM 40.8°F4.9°C 28.4°F-2.0°C 61% Calm Calm -- 29.96 in1014.6 mb 0.00 in0.0 mm 0.00 in/hr0.0 mm/hr 0.00 in0.0 mm
10:15 PM 40.5°F4.7°C 28.5°F-1.9°C 62% Calm Calm -- 29.96 in1014.6 mb 0.00 in0.0 mm 0.00 in/hr0.0 mm/hr 0.00 in0.0 mm
10:30 PM 40.3°F4.6°C 28.3°F-2.1°C 62% Calm Calm -- 29.96 in1014.6 mb 0.00 in0.0 mm 0.00 in/hr0.0 mm/hr 0.00 in0.0 mm
10:45 PM 39.9°F4.4°C 28.3°F-2.1°C 63% Calm Calm -- 29.96 in1014.6 mb 0.00 in0.0 mm 0.00 in/hr0.0 mm/hr 0.00 in0.0 mm
11:00 PM 39.9°F4.4°C 28.3°F-2.1°C 63% Calm Calm -- 29.97 in1014.9 mb 0.00 in0.0 mm 0.00 in/hr0.0 mm/hr 0.00 in0.0 mm
11:15 PM 39.9°F4.4°C 28.3°F-2.1°C 63% Calm Calm -- 29.97 in1014.9 mb 0.00 in0.0 mm 0.00 in/hr0.0 mm/hr 0.00 in0.0 mm
11:30 PM 40.6°F4.8°C 29.0°F-1.7°C 63% 0.4 mph ENE0.6 kmh ENE 1.6 mph2.6 kmh 29.97 in1014.9 mb 0.00 in0.0 mm 0.00 in/hr0.0 mm/hr 0.00 in0.0 mm
11:45 PM 41.0°F5.0°C 29.4°F-1.4°C 63% Calm Calm -- 29.97 in1014.9 mb 0.00 in0.0 mm 0.00 in/hr0.0 mm/hr 0.00 in0.0 mm